Sulphur, LA

11:35 PM CDT on April 26, 2017 (GMT -0500)
Sulphur

Weather History for KUXL - November, 2013

Change the Weather History Date:

Wednesday, November 27, 2013

  Actual Average (KLCH) Record (KLCH)
Temperature  
Mean Temperature 42 °F -  
Max Temperature 49 °F 69 °F 85 °F (1913)
Min Temperature 33 °F 49 °F 28 °F (1912)
Degree Days  
Heating Degree Days 24    
Moisture  
Dew Point 34 °F    
Average Humidity 77    
Maximum Humidity 99    
Minimum Humidity 46    
Precipitation  
Precipitation 0.02 in - - ()
Sea Level Pressure  
Sea Level Pressure 30.34 in    
Wind  
Wind Speed 7 mph (NNW)    
Max Wind Speed 15 mph    
Max Gust Speed 23 mph    
Visibility 10 miles    
Events      
Averages and records for this station are not official NWS values.
T = Trace of Precipitation, MM = Missing Value Source: NWS Daily Summary

Daily Weather History Graph

Daily Weather History Graph

Search for Another Location

Airport or City:

Trip Planner

Search our weather history database for the weather conditions in past years. The results will help you decide how hot, cold, wet, or windy it might be!

Date:

Astronomy

Nov. 27, 2013 Rise Set
Actual Time 6:49 AM CST 5:13 PM CST
Civil Twilight 6:23 AM CST 5:39 PM CST
Nautical Twilight 5:53 AM CST 6:08 PM CST
Astronomical Twilight 5:24 AM CST 6:37 PM CST
Moon 1:14 AM CST 1:30 PM CST
Length of Visible Light 11h 16m
Length of Day
10h 24m
Waning Crescent, 31% of the Moon is Illuminated
Nov 27
Waning Crescent
Dec 2
New
Dec 9
First Quarter
Dec 17
Full
Dec 25
Last Quarter

Hourly Weather History & Observations

Time (CST) Temp. Windchill Dew Point Humidity Pressure Visibility Wind Dir Wind Speed Gust Speed Precip Events Conditions
12:15 AM 40.6 °F 36.7 °F 40.1 °F 98% 30.21 in 7.0 mi WNW 5.8 mph - N/A   Clear
12:35 AM 40.5 °F 36.5 °F 40.1 °F 99% 30.21 in 7.0 mi WNW 5.8 mph - N/A   Clear
12:55 AM 40.1 °F 35.3 °F 39.7 °F 99% 30.21 in 5.0 mi WNW 6.9 mph - N/A   Clear
1:15 AM 40.1 °F 36.1 °F 39.6 °F 98% 30.22 in 7.0 mi NW 5.8 mph - N/A   Clear
1:35 AM 39.6 °F 34.0 °F 39.2 °F 99% 30.22 in 7.0 mi NW 8.1 mph - N/A   Clear
1:55 AM 40.1 °F 34.1 °F 39.0 °F 96% 30.22 in 10.0 mi NW 9.2 mph - N/A   Clear
2:15 AM 39.9 °F 33.9 °F 38.3 °F 94% 30.23 in 10.0 mi NW 9.2 mph - N/A   Clear
2:35 AM 39.4 °F 33.8 °F 37.8 °F 94% 30.24 in 10.0 mi NW 8.1 mph - N/A   Clear
2:55 AM 39.0 °F 33.4 °F 37.6 °F 95% 30.24 in 10.0 mi NW 8.1 mph - N/A   Clear
3:15 AM 38.5 °F 32.7 °F 37.0 °F 95% 30.25 in 10.0 mi NW 8.1 mph - N/A   Clear
3:35 AM 37.9 °F 32.7 °F 36.5 °F 95% 30.26 in 10.0 mi NW 6.9 mph - N/A   Clear
3:55 AM 37.4 °F 32.1 °F 36.3 °F 96% 30.27 in 10.0 mi NW 6.9 mph - N/A   Clear
4:15 AM 37.4 °F 31.4 °F 36.1 °F 95% 30.27 in 10.0 mi NNW 8.1 mph - N/A   Clear
4:35 AM 37.4 °F 32.1 °F 36.1 °F 95% 30.27 in 10.0 mi NNW 6.9 mph - N/A   Clear
4:55 AM 37.0 °F 31.6 °F 35.8 °F 95% 30.28 in 10.0 mi NW 6.9 mph - N/A   Clear
5:15 AM 36.7 °F 30.5 °F 35.6 °F 96% 30.29 in 10.0 mi NNW 8.1 mph - N/A   Clear
5:35 AM 36.7 °F 31.2 °F 35.1 °F 94% 30.30 in 10.0 mi NNW 6.9 mph - N/A   Clear
5:55 AM 36.0 °F 30.3 °F 34.7 °F 95% 30.31 in 10.0 mi NW 6.9 mph - N/A   Clear
6:15 AM 35.8 °F 30.1 °F 34.3 °F 94% 30.32 in 10.0 mi NNW 6.9 mph - N/A   Clear
6:35 AM 35.4 °F 30.5 °F 33.8 °F 94% 30.33 in 10.0 mi NNW 5.8 mph - N/A   Clear
6:55 AM 34.9 °F 29.9 °F 33.8 °F 96% 30.35 in 10.0 mi NW 5.8 mph - N/A   Clear
7:15 AM 34.9 °F 29.9 °F 33.6 °F 95% 30.36 in 10.0 mi NW 5.8 mph - N/A   Clear
7:35 AM 35.1 °F 32.2 °F 33.8 °F 95% 30.37 in 10.0 mi NW 3.5 mph - N/A   Clear
7:55 AM 36.0 °F 32.1 °F 34.7 °F 95% 30.38 in 10.0 mi NNW 4.6 mph - N/A   Clear
8:15 AM 37.4 °F 31.4 °F 35.1 °F 91% 30.38 in 10.0 mi North 8.1 mph - N/A   Scattered Clouds
8:35 AM 38.5 °F 32.7 °F 34.5 °F 86% 30.39 in 10.0 mi North 8.1 mph - N/A   Clear
8:55 AM 39.2 °F 31.2 °F 33.3 °F 79% 30.39 in 10.0 mi North 13.8 mph 17.3 mph N/A   Clear
9:15 AM 40.3 °F 33.0 °F 32.2 °F 73% 30.39 in 10.0 mi North 12.7 mph 20.7 mph N/A   Clear
9:35 AM 40.8 °F 33.3 °F 31.8 °F 70% 30.39 in 10.0 mi North 13.8 mph 23.0 mph N/A   Scattered Clouds
9:55 AM 41.4 °F 34.0 °F 31.8 °F 69% 30.40 in 10.0 mi North 13.8 mph 18.4 mph N/A   Clear
10:15 AM 41.9 °F 34.6 °F 32.2 °F 68% 30.39 in 10.0 mi North 13.8 mph 18.4 mph N/A   Clear
10:35 AM 43.0 °F 37.7 °F 31.8 °F 65% 30.39 in 10.0 mi North 9.2 mph - N/A   Clear
10:55 AM 43.7 °F 38.1 °F 32.2 °F 64% 30.38 in 10.0 mi North 10.4 mph - N/A   Clear
11:15 AM 44.4 °F 39.0 °F 32.0 °F 62% 30.37 in 10.0 mi North 10.4 mph - N/A   Clear
11:35 AM 45.0 °F 39.3 °F 32.4 °F 61% 30.36 in 10.0 mi NNW 11.5 mph 18.4 mph N/A   Clear
11:55 AM 45.5 °F 40.8 °F 32.7 °F 61% 30.35 in 10.0 mi North 9.2 mph - N/A   Clear
12:15 PM 46.6 °F - 33.1 °F 59% 30.35 in 10.0 mi NW 11.5 mph - N/A   Clear
12:35 PM 46.9 °F - 32.2 °F 57% 30.34 in 10.0 mi WNW 8.1 mph - N/A   Clear
12:55 PM 47.8 °F - 31.1 °F 52% 30.33 in 10.0 mi North 11.5 mph - N/A   Clear
1:15 PM 48.2 °F - 32.0 °F 54% 30.32 in 10.0 mi NW 11.5 mph 17.3 mph N/A   Clear
1:35 PM 48.9 °F - 32.2 °F 52% 30.31 in 10.0 mi NNW 11.5 mph - N/A   Clear
1:55 PM 48.9 °F - 31.8 °F 52% 30.31 in 10.0 mi North 11.5 mph 17.3 mph N/A   Clear
2:15 PM 49.3 °F - 31.1 °F 50% 30.31 in 10.0 mi North 10.4 mph 16.1 mph N/A   Clear
2:35 PM 49.5 °F - 30.6 °F 48% 30.31 in 10.0 mi North 11.5 mph 16.1 mph N/A   Clear
2:55 PM 49.8 °F - 30.7 °F 48% 30.31 in 10.0 mi NW 15.0 mph 18.4 mph N/A   Clear
3:15 PM 49.5 °F - 29.3 °F 46% 30.32 in 10.0 mi NNW 15.0 mph - N/A   Clear
3:35 PM 49.5 °F - 30.2 °F 48% 30.32 in 10.0 mi NNW 11.5 mph - N/A   Clear
3:55 PM 49.3 °F - 31.1 °F 50% 30.32 in 10.0 mi NNW 10.4 mph - N/A   Clear
4:15 PM 48.7 °F - 30.7 °F 50% 30.33 in 10.0 mi NNW 9.2 mph - N/A   Clear
4:35 PM 47.5 °F - 30.9 °F 53% 30.33 in 10.0 mi NNW 9.2 mph - N/A   Clear
4:55 PM 46.4 °F 42.9 °F 30.9 °F 55% 30.33 in 10.0 mi North 6.9 mph - N/A   Clear
5:15 PM 45.0 °F 42.6 °F 30.7 °F 57% 30.34 in 10.0 mi North 4.6 mph - N/A   Clear
5:35 PM 43.3 °F 40.7 °F 31.1 °F 62% 30.35 in 10.0 mi North 4.6 mph - N/A   Clear
5:55 PM 41.9 °F 39.0 °F 32.0 °F 68% 30.35 in 10.0 mi North 4.6 mph - N/A   Clear
6:15 PM 40.1 °F - 32.7 °F 75% 30.37 in 10.0 mi Calm Calm - N/A   Clear
6:35 PM 40.1 °F 38.0 °F 32.2 °F 73% 30.37 in 10.0 mi NNW 3.5 mph - N/A   Clear
6:55 PM 39.6 °F 37.4 °F 33.4 °F 79% 30.38 in 10.0 mi NNW 3.5 mph - N/A   Clear
7:15 PM 38.7 °F 36.3 °F 33.1 °F 80% 30.40 in 10.0 mi NNW 3.5 mph - N/A   Clear
7:35 PM 39.0 °F 35.7 °F 32.4 °F 77% 30.40 in 10.0 mi North 4.6 mph - N/A   Clear
7:55 PM 38.8 °F 36.5 °F 32.0 °F 76% 30.41 in 10.0 mi NNW 3.5 mph - N/A   Clear
8:15 PM 38.3 °F 35.9 °F 32.0 °F 78% 30.42 in 10.0 mi North 3.5 mph - N/A   Clear
8:35 PM 39.6 °F 36.3 °F 32.0 °F 74% 30.42 in 10.0 mi North 4.6 mph - N/A   Clear
8:55 PM 37.9 °F - 32.0 °F 79% 30.42 in 10.0 mi Calm Calm - N/A   Clear
9:15 PM 37.0 °F 34.5 °F 32.0 °F 82% 30.42 in 10.0 mi NNE 3.5 mph - N/A   Clear
9:35 PM 38.8 °F 36.5 °F 32.0 °F 76% 30.43 in 10.0 mi North 3.5 mph - N/A   Clear
9:55 PM 37.0 °F 33.3 °F 32.0 °F 82% 30.44 in 10.0 mi North 4.6 mph - N/A   Clear
10:15 PM 36.9 °F 34.3 °F 32.0 °F 83% 30.44 in 10.0 mi NNE 3.5 mph - N/A   Clear
10:35 PM 39.2 °F - 32.0 °F 75% 30.44 in 10.0 mi Calm Calm - N/A   Clear
10:55 PM 35.4 °F 32.6 °F 31.8 °F 87% 30.44 in 10.0 mi North 3.5 mph - N/A   Clear
11:15 PM 36.5 °F - 32.0 °F 84% 30.44 in 10.0 mi Calm Calm - N/A   Clear
11:35 PM 34.2 °F - 32.7 °F 94% 30.43 in 10.0 mi Calm Calm - N/A   Clear
11:55 PM 33.8 °F - 32.7 °F 96% 30.42 in 10.0 mi Calm Calm - N/A   Clear